createdAt,value
2023-03-29T00:04:27.537Z,2.65
2023-03-29T00:10:31.334Z,2.60
2023-03-29T00:16:33.643Z,2.95
2023-03-29T00:22:37.134Z,3.20
2023-03-29T00:28:38.956Z,2.33
2023-03-29T00:34:42.709Z,2.80
2023-03-29T00:40:47.082Z,2.60
2023-03-29T00:46:49.061Z,3.05
2023-03-29T00:53:09.168Z,3.03
2023-03-29T00:59:24.008Z,2.90
2023-03-29T01:05:34.761Z,3.95
2023-03-29T01:11:58.394Z,3.40
2023-03-29T01:18:02.020Z,3.90
2023-03-29T01:24:42.061Z,4.10
2023-03-29T01:30:56.205Z,3.80
2023-03-29T01:37:04.405Z,3.63
2023-03-29T01:43:26.180Z,3.58
2023-03-29T01:49:34.852Z,4.47
2023-03-29T01:55:40.604Z,4.82
2023-03-29T02:01:49.351Z,5.32
2023-03-29T02:07:53.030Z,6.05
2023-03-29T02:13:56.378Z,5.55
2023-03-29T02:20:13.819Z,5.47
2023-03-29T02:26:17.671Z,5.50
2023-03-29T02:32:42.365Z,5.85
2023-03-29T02:38:44.984Z,5.65
2023-03-29T02:44:48.790Z,6.40
2023-03-29T02:50:56.202Z,5.20
2023-03-29T02:57:00.791Z,5.53
2023-03-29T03:03:04.416Z,6.03
2023-03-29T03:09:07.373Z,5.93
2023-03-29T03:15:13.469Z,6.45
2023-03-29T03:21:15.633Z,6.65
2023-03-29T03:27:18.103Z,6.82
2023-03-29T03:33:20.425Z,6.65
2023-03-29T03:39:48.272Z,7.20
2023-03-29T03:45:51.074Z,7.10
2023-03-29T03:51:56.672Z,6.70
2023-03-29T03:57:59.513Z,7.60
2023-03-29T04:04:03.278Z,6.85
2023-03-29T04:10:08.964Z,6.93
2023-03-29T04:16:24.192Z,6.85
2023-03-29T04:22:27.057Z,7.40
2023-03-29T04:28:29.234Z,7.80
2023-03-29T04:34:43.096Z,6.93
2023-03-29T04:40:45.829Z,7.50
2023-03-29T04:47:06.333Z,7.45
2023-03-29T04:53:08.577Z,7.63
2023-03-29T04:59:10.890Z,8.18
2023-03-29T05:05:14.118Z,8.10
2023-03-29T05:11:17.042Z,8.20
2023-03-29T05:17:19.165Z,8.13
2023-03-29T05:23:22.410Z,9.10
2023-03-29T05:29:42.583Z,8.85
2023-03-29T05:36:04.658Z,7.63
2023-03-29T05:42:07.173Z,7.88
2023-03-29T05:48:25.756Z,8.27
2023-03-29T05:54:27.807Z,8.20
2023-03-29T06:00:31.978Z,8.15
2023-03-29T06:06:48.640Z,7.63
2023-03-29T06:12:51.638Z,7.35
2023-03-29T06:18:56.507Z,6.88
2023-03-29T06:24:58.711Z,8.13
2023-03-29T06:31:06.059Z,7.40
2023-03-29T06:37:13.599Z,7.25
2023-03-29T06:43:15.652Z,7.30
2023-03-29T06:49:40.574Z,7.28
2023-03-29T06:56:09.189Z,7.28
2023-03-29T07:02:19.879Z,7.13
2023-03-29T07:08:43.400Z,7.70
2023-03-29T07:14:53.625Z,7.32
2023-03-29T07:20:57.397Z,6.57
2023-03-29T07:27:04.195Z,6.07
2023-03-29T07:33:10.059Z,6.35
2023-03-29T07:39:17.662Z,6.35
2023-03-29T07:45:34.974Z,6.13
2023-03-29T07:51:43.968Z,6.55
2023-03-29T07:57:49.811Z,6.53
2023-03-29T08:03:52.518Z,6.70
2023-03-29T08:09:58.568Z,6.65
2023-03-29T08:16:13.896Z,6.53
2023-03-29T08:22:23.309Z,4.88
2023-03-29T08:28:54.222Z,5.60
2023-03-29T08:34:58.573Z,6.40
2023-03-29T08:41:38.001Z,5.38
2023-03-29T08:48:07.057Z,4.72
2023-03-29T08:54:33.256Z,4.75
2023-03-29T09:00:54.102Z,4.50
2023-03-29T09:06:57.833Z,4.10
2023-03-29T09:13:17.801Z,4.72
2023-03-29T09:19:51.457Z,4.88
2023-03-29T09:25:58.037Z,4.85
2023-03-29T09:32:24.300Z,4.43
2023-03-29T09:38:38.785Z,4.25
2023-03-29T09:45:08.630Z,4.83
2023-03-29T09:51:25.666Z,4.72
2023-03-29T09:57:29.127Z,4.20
2023-03-29T10:03:34.913Z,4.40
2023-03-29T10:09:50.504Z,4.25
2023-03-29T10:16:09.769Z,4.28
2023-03-29T10:22:26.310Z,4.65
2023-03-29T10:28:28.427Z,4.25
2023-03-29T10:34:30.542Z,4.22
2023-03-29T10:40:35.333Z,3.90
2023-03-29T10:46:46.517Z,4.00
2023-03-29T10:52:50.230Z,4.13
2023-03-29T10:59:14.469Z,4.15
2023-03-29T11:05:49.180Z,4.60
2023-03-29T11:12:18.750Z,4.38
2023-03-29T11:18:50.957Z,4.20
2023-03-29T11:25:23.958Z,4.75
2023-03-29T11:31:33.382Z,4.60
2023-03-29T11:37:48.022Z,4.47
2023-03-29T11:43:59.204Z,3.70
2023-03-29T11:50:14.810Z,4.60
2023-03-29T11:56:29.307Z,4.82
2023-03-29T12:03:16.179Z,4.55
2023-03-29T12:09:24.174Z,4.65
2023-03-29T12:21:30.597Z,4.93
2023-03-29T12:28:00.392Z,4.57
2023-03-29T12:34:21.374Z,4.72
2023-03-29T12:40:28.546Z,4.57
2023-03-29T12:46:54.776Z,5.25
2023-03-29T12:59:38.245Z,5.03
2023-03-29T13:05:40.158Z,5.03
2023-03-29T13:11:42.665Z,4.50
2023-03-29T13:17:56.620Z,5.10
2023-03-29T13:24:12.041Z,5.57
2023-03-29T13:30:33.652Z,5.40
2023-03-29T13:36:51.341Z,5.30
2023-03-29T13:43:30.863Z,4.72
2023-03-29T13:49:34.865Z,4.47
2023-03-29T13:56:03.724Z,4.70
2023-03-29T14:02:06.701Z,4.70
2023-03-29T14:08:28.813Z,5.00
2023-03-29T14:14:32.201Z,4.82
2023-03-29T14:20:36.575Z,5.22
2023-03-29T14:26:40.527Z,4.93
2023-03-29T14:32:42.400Z,4.68
2023-03-29T14:38:49.845Z,5.63
2023-03-29T14:44:56.726Z,4.68
2023-03-29T14:50:59.926Z,4.70
2023-03-29T14:57:07.170Z,4.53
2023-03-29T15:03:16.877Z,5.00
2023-03-29T15:09:30.170Z,4.35
2023-03-29T15:15:34.665Z,4.53
2023-03-29T15:21:38.723Z,4.53
2023-03-29T15:27:42.419Z,4.57
2023-03-29T15:33:44.561Z,4.53
2023-03-29T15:39:46.545Z,4.18
2023-03-29T15:45:48.629Z,3.95
2023-03-29T15:51:53.997Z,4.05
2023-03-29T15:57:58.151Z,4.15
2023-03-29T16:04:16.096Z,4.00
2023-03-29T16:10:17.965Z,5.13
2023-03-29T16:16:19.949Z,4.32
2023-03-29T16:22:22.147Z,4.65
2023-03-29T16:28:24.038Z,4.68
2023-03-29T16:34:26.751Z,4.00
2023-03-29T16:40:31.623Z,4.22
2023-03-29T16:46:33.694Z,3.22
2023-03-29T16:52:35.614Z,2.70
2023-03-29T16:58:39.596Z,2.67
2023-03-29T17:04:41.926Z,2.83
2023-03-29T17:10:44.276Z,2.53
2023-03-29T17:16:46.413Z,2.97
2023-03-29T17:22:51.559Z,3.00
2023-03-29T17:28:53.361Z,3.28
2023-03-29T17:35:01.858Z,3.30
2023-03-29T17:41:04.530Z,3.38
2023-03-29T17:47:06.700Z,3.15
2023-03-29T17:53:10.179Z,3.75
2023-03-29T17:59:12.074Z,3.47
2023-03-29T18:05:13.913Z,4.00
2023-03-29T18:11:22.944Z,3.72
2023-03-29T18:17:27.969Z,3.90
2023-03-29T18:23:30.391Z,3.65
2023-03-29T18:29:35.766Z,3.50
2023-03-29T18:35:38.548Z,3.55
2023-03-29T18:41:41.058Z,3.08
2023-03-29T18:47:46.871Z,3.45
2023-03-29T18:53:56.247Z,3.08
2023-03-29T19:00:01.417Z,3.10
2023-03-29T19:06:06.450Z,3.55
2023-03-29T19:12:18.327Z,2.92
2023-03-29T19:18:20.196Z,3.40
2023-03-29T19:24:23.084Z,3.47
2023-03-29T19:30:25.840Z,3.85
2023-03-29T19:36:28.304Z,3.83
2023-03-29T19:42:30.390Z,3.92
2023-03-29T19:48:32.259Z,4.28
2023-03-29T19:54:34.179Z,3.65
2023-03-29T20:00:38.766Z,3.50
2023-03-29T20:06:40.753Z,4.13
2023-03-29T20:12:42.606Z,4.30
2023-03-29T20:18:45.721Z,4.32
2023-03-29T20:24:47.514Z,4.65
2023-03-29T20:30:51.272Z,4.72
2023-03-29T20:36:55.393Z,4.30
2023-03-29T20:42:57.586Z,4.20
2023-03-29T20:49:01.560Z,4.40
2023-03-29T20:55:04.211Z,4.68
2023-03-29T21:01:06.381Z,4.28
2023-03-29T21:07:08.401Z,4.55
2023-03-29T21:13:10.706Z,4.78
2023-03-29T21:19:12.953Z,4.60
2023-03-29T21:25:15.873Z,4.85
2023-03-29T21:31:17.807Z,4.88
2023-03-29T21:37:19.655Z,5.00
2023-03-29T21:43:21.551Z,5.45
2023-03-29T21:49:23.425Z,5.30
2023-03-29T21:55:27.829Z,4.82
2023-03-29T22:01:29.903Z,5.43
2023-03-29T22:07:35.192Z,5.28
2023-03-29T22:13:37.597Z,5.45
2023-03-29T22:19:40.078Z,5.68
2023-03-29T22:25:41.993Z,6.15
2023-03-29T22:31:43.813Z,6.05
2023-03-29T22:37:45.790Z,6.38
2023-03-29T22:43:47.614Z,5.78
2023-03-29T22:49:49.541Z,6.43
2023-03-29T22:55:51.576Z,5.88
2023-03-29T23:01:53.472Z,5.55
2023-03-29T23:07:55.888Z,5.78
2023-03-29T23:13:57.765Z,5.65
2023-03-29T23:19:59.638Z,5.40
2023-03-29T23:26:01.845Z,5.80
2023-03-29T23:32:04.209Z,6.00
2023-03-29T23:38:06.027Z,5.95
2023-03-29T23:44:07.962Z,6.05
2023-03-29T23:50:13.569Z,5.78
2023-03-29T23:56:15.754Z,5.63
